Latest Coastal Weather Observations for Burnie Port

IDT60701

Issued at 8:42 am EDT Friday 20 October 2017 (issued every 10 minutes, with the page automatically refreshed every 10 minutes)

About coastal observations | Map of coastal stations | Coastal observations for TAS | Marine services | Other Formats
Station Details ID: 091344 Name: BURNIE NTC AWS Lat: -41.05 Lon: 145.91 Height: 0.0 m
Data from the previous 72 hours. | See also: Recent months for locations in Tasmania
Date/Time
EDT
Temp
°C
Wind Pressure Rain since
9am
mm
Weather Cloud Vis
km
Sea
Height
m
Swell
Dir  Spd
kts
Gust
kts
hPa Trend Height
m
Period
s
Dir
20/08:30am 11.7 W 8 18 1021.6 - - - - - - - - -
20/08:00am 10.5 NW 7 10 1021.2 - - - - - - - - -
20/07:30am 10.4 WNW 6 9 1020.8 - - - - - - - - -
20/07:00am 10.1 NW 7 10 1020.4 - - - - - - - - -
20/06:30am 9.9 NW 5 7 1020.0 - - - - - - - - -
20/06:00am 10.0 W 6 12 1019.4 - - - - - - - - -
20/05:30am 10.3 W 7 12 1019.1 - - - - - - - - -
20/05:00am 10.4 W 6 15 1018.9 - - - - - - - - -
20/04:30am 10.4 W 8 16 1018.5 - - - - - - - - -
20/04:00am 10.6 W 8 17 1018.2 - - - - - - - - -
20/03:30am 10.6 WNW 8 13 1018.2 - - - - - - - - -
20/03:00am 10.8 W 8 13 1018.0 - - - - - - - - -
20/02:30am 10.6 WNW 8 14 1018.2 - - - - - - - - -
20/02:00am 11.1 W 7 11 1017.9 - - - - - - - - -
20/01:30am 11.3 W 8 13 1018.0 - - - - - - - - -
20/01:00am 11.4 WNW 6 10 1017.8 - - - - - - - - -
20/12:30am 11.2 WNW 6 9 1017.6 - - - - - - - - -
20/12:00am 11.4 WNW 7 11 1017.6 - - - - - - - - -
 
Date/Time
EDT
Temp
°C
Wind Pressure Rain since
9am
mm
Weather Cloud Vis
km
Sea
Height
m
Swell
Dir  Spd
kts
Gust
kts
hPa Trend Height
m
Period
s
Dir
19/11:30pm 11.4 WNW 5 9 1017.9 - - - - - - - - -
19/11:00pm 11.7 WNW 6 10 1017.9 - - - - - - - - -
19/10:30pm 12.0 WNW 8 12 1018.1 - - - - - - - - -
19/10:00pm 12.1 WNW 7 11 1017.9 - - - - - - - - -
19/09:30pm 12.0 W 6 10 1017.3 - - - - - - - - -
19/09:00pm 12.6 W 7 13 1016.9 - - - - - - - - -
19/08:30pm 13.0 W 8 15 1016.0 - - - - - - - - -
19/08:00pm 13.6 W 8 14 1015.8 - - - - - - - - -
19/07:30pm 14.4 WSW 10 18 1015.1 - - - - - - - - -
19/07:00pm 15.1 WSW 12 22 1014.5 - - - - - - - - -
19/06:30pm 15.9 W 12 20 1013.3 - - - - - - - - -
19/06:00pm 16.6 WSW 11 18 1012.7 - - - - - - - - -
19/05:30pm 17.2 WSW 12 23 1012.5 - - - - - - - - -
19/05:00pm 17.9 WSW 9 18 1011.9 - - - - - - - - -
19/04:30pm 15.6 WNW 8 12 1011.5 - - - - - - - - -
19/04:00pm 14.7 NW 14 18 1011.5 - - - - - - - - -
19/03:30pm 14.8 NW 17 21 1011.6 - - - - - - - - -
19/03:00pm 14.9 NW 17 20 1011.9 - - - - - - - - -
19/02:30pm 15.1 NW 17 20 1011.9 - - - - - - - - -
19/02:00pm 15.1 NW 9 13 1012.2 - - - - - - - - -
19/01:30pm 14.5 NW 6 12 1012.4 - - - - - - - - -
19/01:00pm 14.1 NW 3 4 1012.5 - - - - - - - - -
19/12:30pm 14.2 N 5 6 1012.9 - - - - - - - - -
19/12:00pm 14.6 N 4 5 1012.9 - - - - - - - - -
19/11:30am 14.7 NNW 3 3 1012.8 - - - - - - - - -
19/11:00am 14.7 N 3 4 1012.5 - - - - - - - - -
19/10:30am 14.8 NNW 4 5 1012.7 - - - - - - - - -
19/10:00am 15.1 NNE 1 3 1012.9 - - - - - - - - -
19/09:30am 14.9 S 2 5 1012.9 - - - - - - - - -
19/09:00am 14.8 ESE 5 7 1012.8 - - - - - - - - -
19/08:30am 14.9 SE 3 6 1012.8 - - - - - - - - -
19/08:00am 15.4 S 3 5 1013.1 - - - - - - - - -
19/07:30am 15.9 SSE 5 7 1013.2 - - - - - - - - -
19/07:00am 16.3 ESE 9 11 1013.2 - - - - - - - - -
19/06:30am 16.6 SE 10 13 1012.8 - - - - - - - - -
19/06:00am 16.9 ESE 10 13 1012.5 - - - - - - - - -
19/05:30am 17.1 ESE 10 14 1012.7 - - - - - - - - -
19/05:00am 16.7 ESE 11 13 1012.9 - - - - - - - - -
19/04:30am 17.0 ESE 9 13 1013.1 - - - - - - - - -
19/04:00am 17.1 S 4 7 1013.6 - - - - - - - - -
19/03:30am 17.7 SSE 5 11 1013.7 - - - - - - - - -
19/03:00am 17.1 SSE 6 9 1014.1 - - - - - - - - -
19/02:30am 16.9 SSE 6 8 1014.6 - - - - - - - - -
19/02:00am 17.3 SE 7 12 1015.3 - - - - - - - - -
19/01:30am 17.8 SSE 7 13 1015.5 - - - - - - - - -
19/01:00am 18.2 SE 10 13 1016.0 - - - - - - - - -
19/12:30am 17.9 SSE 5 7 1016.4 - - - - - - - - -
19/12:00am 17.9 SE 4 6 1016.7 - - - - - - - - -
 
Date/Time
EDT
Temp
°C
Wind Pressure Rain since
9am
mm
Weather Cloud Vis
km
Sea
Height
m
Swell
Dir  Spd
kts
Gust
kts
hPa Trend Height
m
Period
s
Dir
18/11:30pm 18.0 SSE 3 5 1017.0 - - - - - - - - -
18/11:00pm 19.4 SSE 6 7 1017.3 - - - - - - - - -
18/10:30pm 18.8 SSW 6 8 1017.6 - - - - - - - - -
18/10:00pm 18.6 S 8 10 1017.9 - - - - - - - - -
18/09:30pm 18.1 S 9 11 1018.3 - - - - - - - - -
18/09:00pm 18.0 S 6 9 1018.4 - - - - - - - - -
18/08:30pm 17.6 SSE 5 7 1018.2 - - - - - - - - -
18/08:00pm 16.9 SSE 3 4 1018.2 - - - - - - - - -
18/07:30pm 16.6 SE 3 5 1018.3 - - - - - - - - -
18/07:00pm 16.6 E 3 5 1018.1 - - - - - - - - -
18/06:30pm 16.4 SE 3 4 1018.1 - - - - - - - - -
18/06:00pm 16.1 SE 3 4 1018.1 - - - - - - - - -
18/05:30pm 16.1 SE 3 5 1018.1 - - - - - - - - -
18/05:00pm 16.0 ESE 3 4 1018.3 - - - - - - - - -
18/04:30pm 16.1 ESE 4 5 1018.5 - - - - - - - - -
18/04:00pm 16.0 E 4 5 1018.7 - - - - - - - - -
18/03:30pm 15.7 ENE 4 6 1019.0 - - - - - - - - -
18/03:00pm 15.6 E 5 6 1019.3 - - - - - - - - -
18/02:30pm 15.6 E 5 6 1019.8 - - - - - - - - -
18/02:00pm 15.5 E 5 7 1020.3 - - - - - - - - -
18/01:30pm 15.7 ESE 4 6 1020.7 - - - - - - - - -
18/01:00pm 15.7 ESE 5 7 1021.0 - - - - - - - - -
18/12:30pm 15.9 E 5 9 1021.2 - - - - - - - - -
18/12:00pm 15.9 E 7 10 1021.3 - - - - - - - - -
18/11:30am 16.1 E 9 11 1021.4 - - - - - - - - -
18/11:00am 15.9 E 10 12 1021.8 - - - - - - - - -
18/10:30am 16.6 E 9 11 1022.0 - - - - - - - - -
18/10:00am 15.3 ESE 5 6 1022.4 - - - - - - - - -
18/09:30am 14.5 SSE 3 4 1022.6 - - - - - - - - -
18/09:00am 14.4 E 4 5 1022.6 - - - - - - - - -
18/08:30am 15.0 E 5 8 1022.5 - - - - - - - - -
18/08:00am 17.3 S 5 6 1022.2 - - - - - - - - -
18/07:30am 16.0 S 5 7 1021.9 - - - - - - - - -
18/07:00am 13.4 S 8 9 1021.6 - - - - - - - - -
18/06:30am 14.7 SSW 5 6 1021.4 - - - - - - - - -
18/06:00am 14.7 S 8 10 1021.0 - - - - - - - - -
18/05:30am 15.0 S 6 9 1021.0 - - - - - - - - -
18/05:00am 15.4 S 8 11 1021.1 - - - - - - - - -
18/04:30am 15.4 S 10 12 1021.1 - - - - - - - - -
18/04:00am 15.3 SSW 7 9 1021.4 - - - - - - - - -
18/03:30am 15.1 S 8 10 1021.3 - - - - - - - - -
18/03:00am 15.0 S 6 8 1021.6 - - - - - - - - -
18/02:30am 15.2 SSW 5 6 1021.9 - - - - - - - - -
18/02:00am 14.8 SSW 3 5 1022.1 - - - - - - - - -
18/01:30am 15.4 SSE 3 6 1022.2 - - - - - - - - -
18/01:00am 14.9 S 4 5 1022.3 - - - - - - - - -
18/12:30am 14.0 S 4 5 1022.6 - - - - - - - - -
18/12:00am 15.3 SSE 4 6 1023.0 - - - - - - - - -
 
Date/Time
EDT
Temp
°C
Wind Pressure Rain since
9am
mm
Weather Cloud Vis
km
Sea
Height
m
Swell
Dir  Spd
kts
Gust
kts
hPa Trend Height
m
Period
s
Dir
17/11:30pm 15.0 S 5 6 1023.0 - - - - - - - - -
17/11:00pm 15.2 S 4 5 1023.2 - - - - - - - - -
17/10:30pm 15.1 S 4 5 1023.3 - - - - - - - - -
17/10:00pm 15.7 S 3 3 1023.5 - - - - - - - - -
17/09:30pm 15.8 SSW 3 3 1023.4 - - - - - - - - -
17/09:00pm 16.5 SSW 3 4 1023.3 - - - - - - - - -
17/08:30pm 16.3 SSW 4 4 1023.0 - - - - - - - - -
17/08:00pm 15.9 ESE 3 3 1022.8 - - - - - - - - -

Other Formats:

Comma delimited format used in spreadsheet applications
http://www.bom.gov.au/fwo/IDT60701/IDT60701.95963.axf

JavaScript Object Notation format (JSON) in row-major order
http://www.bom.gov.au/fwo/IDT60701/IDT60701.95963.json